sensor_id;sensor_type;location;lat;lon;timestamp;P1;durP1;ratioP1;P2;durP2;ratioP2
81135;SDS011;70622;50.886;3.890;2023-07-13T00:00:01;6.32;;;1.73;;
81135;SDS011;70622;50.886;3.890;2023-07-13T00:02:29;6.15;;;1.73;;
81135;SDS011;70622;50.886;3.890;2023-07-13T00:04:55;4.90;;;1.60;;
81135;SDS011;70622;50.886;3.890;2023-07-13T00:07:20;9.15;;;1.98;;
81135;SDS011;70622;50.886;3.890;2023-07-13T00:09:46;6.93;;;1.95;;
81135;SDS011;70622;50.886;3.890;2023-07-13T00:12:23;4.93;;;1.65;;
81135;SDS011;70622;50.886;3.890;2023-07-13T00:15:04;8.43;;;2.07;;
81135;SDS011;70622;50.886;3.890;2023-07-13T00:17:36;10.88;;;2.08;;
81135;SDS011;70622;50.886;3.890;2023-07-13T00:20:03;6.82;;;1.70;;
81135;SDS011;70622;50.886;3.890;2023-07-13T00:22:29;4.30;;;1.85;;
81135;SDS011;70622;50.886;3.890;2023-07-13T00:24:55;6.35;;;2.00;;
81135;SDS011;70622;50.886;3.890;2023-07-13T00:27:21;6.40;;;2.47;;
81135;SDS011;70622;50.886;3.890;2023-07-13T00:29:48;7.57;;;1.85;;
81135;SDS011;70622;50.886;3.890;2023-07-13T00:32:13;5.25;;;1.83;;
81135;SDS011;70622;50.886;3.890;2023-07-13T00:34:39;8.02;;;2.05;;
81135;SDS011;70622;50.886;3.890;2023-07-13T00:37:05;7.55;;;1.98;;
81135;SDS011;70622;50.886;3.890;2023-07-13T00:39:32;6.10;;;1.73;;
81135;SDS011;70622;50.886;3.890;2023-07-13T00:41:59;10.38;;;2.67;;
81135;SDS011;70622;50.886;3.890;2023-07-13T00:44:26;7.65;;;2.20;;
81135;SDS011;70622;50.886;3.890;2023-07-13T00:46:51;7.75;;;2.10;;
81135;SDS011;70622;50.886;3.890;2023-07-13T00:49:18;9.32;;;1.90;;
81135;SDS011;70622;50.886;3.890;2023-07-13T00:51:54;8.18;;;1.92;;
81135;SDS011;70622;50.886;3.890;2023-07-13T00:54:24;6.63;;;2.22;;
81135;SDS011;70622;50.886;3.890;2023-07-13T00:56:53;7.93;;;1.98;;
81135;SDS011;70622;50.886;3.890;2023-07-13T01:01:49;7.85;;;2.15;;
81135;SDS011;70622;50.886;3.890;2023-07-13T01:04:15;9.13;;;2.33;;
81135;SDS011;70622;50.886;3.890;2023-07-13T01:06:41;9.95;;;2.13;;
81135;SDS011;70622;50.886;3.890;2023-07-13T01:09:09;10.23;;;2.20;;
81135;SDS011;70622;50.886;3.890;2023-07-13T01:11:36;9.45;;;2.45;;
81135;SDS011;70622;50.886;3.890;2023-07-13T01:14:02;10.75;;;2.80;;
81135;SDS011;70622;50.886;3.890;2023-07-13T01:16:30;11.18;;;2.95;;
81135;SDS011;70622;50.886;3.890;2023-07-13T01:18:58;7.70;;;3.10;;
81135;SDS011;70622;50.886;3.890;2023-07-13T01:21:25;5.40;;;2.08;;
81135;SDS011;70622;50.886;3.890;2023-07-13T01:23:51;5.57;;;1.90;;
81135;SDS011;70622;50.886;3.890;2023-07-13T01:26:17;8.50;;;2.22;;
81135;SDS011;70622;50.886;3.890;2023-07-13T01:28:43;11.65;;;2.50;;
81135;SDS011;70622;50.886;3.890;2023-07-13T01:31:09;8.65;;;2.40;;
81135;SDS011;70622;50.886;3.890;2023-07-13T01:33:36;7.35;;;1.90;;
81135;SDS011;70622;50.886;3.890;2023-07-13T01:36:04;6.03;;;2.22;;
81135;SDS011;70622;50.886;3.890;2023-07-13T01:38:31;8.63;;;2.70;;
81135;SDS011;70622;50.886;3.890;2023-07-13T01:40:58;7.63;;;2.47;;
81135;SDS011;70622;50.886;3.890;2023-07-13T01:43:24;8.65;;;2.13;;
81135;SDS011;70622;50.886;3.890;2023-07-13T01:45:50;6.57;;;2.33;;
81135;SDS011;70622;50.886;3.890;2023-07-13T01:48:16;7.97;;;2.72;;
81135;SDS011;70622;50.886;3.890;2023-07-13T01:50:41;13.10;;;2.65;;
81135;SDS011;70622;50.886;3.890;2023-07-13T01:53:07;5.78;;;2.13;;
81135;SDS011;70622;50.886;3.890;2023-07-13T01:55:34;7.15;;;2.58;;
81135;SDS011;70622;50.886;3.890;2023-07-13T01:58:00;10.50;;;2.60;;
81135;SDS011;70622;50.886;3.890;2023-07-13T02:00:27;7.85;;;2.63;;
81135;SDS011;70622;50.886;3.890;2023-07-13T02:02:52;7.68;;;2.20;;
81135;SDS011;70622;50.886;3.890;2023-07-13T02:05:18;10.02;;;3.00;;
81135;SDS011;70622;50.886;3.890;2023-07-13T02:07:44;14.80;;;2.80;;
81135;SDS011;70622;50.886;3.890;2023-07-13T02:10:10;7.18;;;2.33;;
81135;SDS011;70622;50.886;3.890;2023-07-13T02:12:37;7.07;;;2.25;;
81135;SDS011;70622;50.886;3.890;2023-07-13T02:15:03;8.88;;;2.15;;
81135;SDS011;70622;50.886;3.890;2023-07-13T02:17:29;12.13;;;2.25;;
81135;SDS011;70622;50.886;3.890;2023-07-13T02:19:55;9.48;;;2.80;;
81135;SDS011;70622;50.886;3.890;2023-07-13T02:22:21;12.57;;;2.78;;
81135;SDS011;70622;50.886;3.890;2023-07-13T02:24:47;6.80;;;2.40;;
81135;SDS011;70622;50.886;3.890;2023-07-13T02:27:13;9.10;;;2.42;;
81135;SDS011;70622;50.886;3.890;2023-07-13T02:29:38;12.88;;;2.42;;
81135;SDS011;70622;50.886;3.890;2023-07-13T02:32:04;6.85;;;2.50;;
81135;SDS011;70622;50.886;3.890;2023-07-13T02:34:30;8.05;;;2.15;;
81135;SDS011;70622;50.886;3.890;2023-07-13T02:36:56;9.68;;;2.20;;
81135;SDS011;70622;50.886;3.890;2023-07-13T02:39:22;8.70;;;2.20;;
81135;SDS011;70622;50.886;3.890;2023-07-13T02:41:47;8.43;;;2.45;;
81135;SDS011;70622;50.886;3.890;2023-07-13T02:44:13;9.15;;;3.03;;
81135;SDS011;70622;50.886;3.890;2023-07-13T02:46:39;8.23;;;2.55;;
81135;SDS011;70622;50.886;3.890;2023-07-13T02:49:05;7.43;;;2.33;;
81135;SDS011;70622;50.886;3.890;2023-07-13T02:51:31;5.55;;;2.05;;
81135;SDS011;70622;50.886;3.890;2023-07-13T02:53:59;6.55;;;2.28;;
81135;SDS011;70622;50.886;3.890;2023-07-13T02:56:26;9.90;;;2.50;;
81135;SDS011;70622;50.886;3.890;2023-07-13T02:58:53;7.90;;;2.40;;
81135;SDS011;70622;50.886;3.890;2023-07-13T03:01:19;10.48;;;2.83;;
81135;SDS011;70622;50.886;3.890;2023-07-13T03:03:46;4.65;;;2.40;;
81135;SDS011;70622;50.886;3.890;2023-07-13T03:06:13;7.15;;;2.45;;
81135;SDS011;70622;50.886;3.890;2023-07-13T03:08:40;4.25;;;2.05;;
81135;SDS011;70622;50.886;3.890;2023-07-13T03:11:07;7.95;;;2.25;;
81135;SDS011;70622;50.886;3.890;2023-07-13T03:13:36;8.63;;;2.60;;
81135;SDS011;70622;50.886;3.890;2023-07-13T03:16:02;4.63;;;2.05;;
81135;SDS011;70622;50.886;3.890;2023-07-13T03:18:28;9.13;;;2.80;;
81135;SDS011;70622;50.886;3.890;2023-07-13T03:20:54;7.07;;;2.88;;
81135;SDS011;70622;50.886;3.890;2023-07-13T03:23:20;6.68;;;2.83;;
81135;SDS011;70622;50.886;3.890;2023-07-13T03:25:46;5.80;;;2.42;;
81135;SDS011;70622;50.886;3.890;2023-07-13T03:28:13;7.55;;;2.70;;
81135;SDS011;70622;50.886;3.890;2023-07-13T03:30:39;9.60;;;3.05;;
81135;SDS011;70622;50.886;3.890;2023-07-13T03:33:05;9.95;;;2.80;;
81135;SDS011;70622;50.886;3.890;2023-07-13T03:35:31;7.03;;;2.50;;
81135;SDS011;70622;50.886;3.890;2023-07-13T03:37:58;10.73;;;2.78;;
81135;SDS011;70622;50.886;3.890;2023-07-13T03:40:24;9.35;;;2.88;;
81135;SDS011;70622;50.886;3.890;2023-07-13T03:42:51;6.53;;;2.67;;
81135;SDS011;70622;50.886;3.890;2023-07-13T03:45:17;8.45;;;2.55;;
81135;SDS011;70622;50.886;3.890;2023-07-13T03:47:43;7.35;;;3.00;;
81135;SDS011;70622;50.886;3.890;2023-07-13T03:50:09;11.68;;;2.70;;
81135;SDS011;70622;50.886;3.890;2023-07-13T03:52:35;14.90;;;2.90;;
81135;SDS011;70622;50.886;3.890;2023-07-13T03:55:01;11.25;;;2.88;;
81135;SDS011;70622;50.886;3.890;2023-07-13T03:57:27;8.77;;;2.83;;
81135;SDS011;70622;50.886;3.890;2023-07-13T03:59:53;10.35;;;3.03;;
81135;SDS011;70622;50.886;3.890;2023-07-13T04:02:18;10.98;;;2.90;;
81135;SDS011;70622;50.886;3.890;2023-07-13T04:04:44;7.13;;;3.00;;
81135;SDS011;70622;50.886;3.890;2023-07-13T04:07:09;12.27;;;3.10;;
81135;SDS011;70622;50.886;3.890;2023-07-13T04:09:35;11.32;;;2.92;;
81135;SDS011;70622;50.886;3.890;2023-07-13T04:12:01;11.20;;;3.05;;
81135;SDS011;70622;50.886;3.890;2023-07-13T04:14:27;5.88;;;2.53;;
81135;SDS011;70622;50.886;3.890;2023-07-13T04:16:53;11.95;;;3.08;;
81135;SDS011;70622;50.886;3.890;2023-07-13T04:19:19;7.03;;;2.80;;
81135;SDS011;70622;50.886;3.890;2023-07-13T04:21:46;9.25;;;2.28;;
81135;SDS011;70622;50.886;3.890;2023-07-13T04:24:12;10.38;;;2.92;;
81135;SDS011;70622;50.886;3.890;2023-07-13T04:26:38;12.27;;;2.83;;
81135;SDS011;70622;50.886;3.890;2023-07-13T04:29:04;12.43;;;3.53;;
81135;SDS011;70622;50.886;3.890;2023-07-13T04:31:31;9.93;;;2.50;;
81135;SDS011;70622;50.886;3.890;2023-07-13T04:33:57;11.40;;;3.45;;
81135;SDS011;70622;50.886;3.890;2023-07-13T04:36:24;10.98;;;3.03;;
81135;SDS011;70622;50.886;3.890;2023-07-13T04:38:52;10.07;;;3.30;;
81135;SDS011;70622;50.886;3.890;2023-07-13T04:41:19;5.68;;;2.45;;
81135;SDS011;70622;50.886;3.890;2023-07-13T04:43:45;11.05;;;2.97;;
81135;SDS011;70622;50.886;3.890;2023-07-13T04:46:11;10.63;;;2.95;;
81135;SDS011;70622;50.886;3.890;2023-07-13T04:48:38;8.27;;;3.90;;
81135;SDS011;70622;50.886;3.890;2023-07-13T04:51:04;8.77;;;3.20;;
81135;SDS011;70622;50.886;3.890;2023-07-13T04:53:31;7.45;;;3.35;;
81135;SDS011;70622;50.886;3.890;2023-07-13T04:55:57;9.43;;;2.95;;
81135;SDS011;70622;50.886;3.890;2023-07-13T04:58:23;10.82;;;3.17;;
81135;SDS011;70622;50.886;3.890;2023-07-13T05:00:49;9.50;;;2.78;;
81135;SDS011;70622;50.886;3.890;2023-07-13T05:03:15;8.98;;;2.58;;
81135;SDS011;70622;50.886;3.890;2023-07-13T05:05:41;10.98;;;2.75;;
81135;SDS011;70622;50.886;3.890;2023-07-13T05:08:07;9.48;;;2.60;;
81135;SDS011;70622;50.886;3.890;2023-07-13T05:10:33;11.35;;;2.85;;
81135;SDS011;70622;50.886;3.890;2023-07-13T05:12:59;10.20;;;3.00;;
81135;SDS011;70622;50.886;3.890;2023-07-13T05:15:25;9.35;;;3.10;;
81135;SDS011;70622;50.886;3.890;2023-07-13T05:17:51;12.05;;;3.17;;
81135;SDS011;70622;50.886;3.890;2023-07-13T05:20:17;6.68;;;2.67;;
81135;SDS011;70622;50.886;3.890;2023-07-13T05:22:44;8.95;;;2.78;;
81135;SDS011;70622;50.886;3.890;2023-07-13T05:25:12;10.52;;;2.90;;
81135;SDS011;70622;50.886;3.890;2023-07-13T05:27:38;12.25;;;3.20;;
81135;SDS011;70622;50.886;3.890;2023-07-13T05:30:04;12.98;;;3.20;;
81135;SDS011;70622;50.886;3.890;2023-07-13T05:32:30;11.57;;;3.47;;
81135;SDS011;70622;50.886;3.890;2023-07-13T05:34:56;8.75;;;2.80;;
81135;SDS011;70622;50.886;3.890;2023-07-13T05:37:22;12.43;;;2.95;;
81135;SDS011;70622;50.886;3.890;2023-07-13T05:39:47;9.93;;;3.38;;
81135;SDS011;70622;50.886;3.890;2023-07-13T05:42:13;11.88;;;4.55;;
81135;SDS011;70622;50.886;3.890;2023-07-13T05:44:39;11.55;;;2.83;;
81135;SDS011;70622;50.886;3.890;2023-07-13T05:47:05;10.77;;;3.53;;
81135;SDS011;70622;50.886;3.890;2023-07-13T05:49:31;7.82;;;3.00;;
81135;SDS011;70622;50.886;3.890;2023-07-13T05:51:56;9.30;;;3.17;;
81135;SDS011;70622;50.886;3.890;2023-07-13T05:54:22;13.63;;;2.95;;
81135;SDS011;70622;50.886;3.890;2023-07-13T05:56:48;11.27;;;3.10;;
81135;SDS011;70622;50.886;3.890;2023-07-13T05:59:13;16.00;;;3.58;;
81135;SDS011;70622;50.886;3.890;2023-07-13T06:01:39;15.13;;;3.40;;
81135;SDS011;70622;50.886;3.890;2023-07-13T06:04:06;16.92;;;3.38;;
81135;SDS011;70622;50.886;3.890;2023-07-13T06:06:32;11.77;;;3.47;;
81135;SDS011;70622;50.886;3.890;2023-07-13T06:08:57;11.90;;;3.30;;
81135;SDS011;70622;50.886;3.890;2023-07-13T06:11:24;15.38;;;3.33;;
81135;SDS011;70622;50.886;3.890;2023-07-13T06:13:52;10.45;;;3.47;;
81135;SDS011;70622;50.886;3.890;2023-07-13T06:16:19;13.20;;;3.92;;
81135;SDS011;70622;50.886;3.890;2023-07-13T06:18:45;9.32;;;3.20;;
81135;SDS011;70622;50.886;3.890;2023-07-13T06:21:13;11.25;;;3.20;;
81135;SDS011;70622;50.886;3.890;2023-07-13T06:23:40;9.18;;;3.33;;
81135;SDS011;70622;50.886;3.890;2023-07-13T06:26:07;11.50;;;3.20;;
81135;SDS011;70622;50.886;3.890;2023-07-13T06:28:33;10.73;;;2.97;;
81135;SDS011;70622;50.886;3.890;2023-07-13T06:30:59;7.45;;;2.83;;
81135;SDS011;70622;50.886;3.890;2023-07-13T06:33:25;12.93;;;3.22;;
81135;SDS011;70622;50.886;3.890;2023-07-13T06:35:51;10.15;;;3.60;;
81135;SDS011;70622;50.886;3.890;2023-07-13T06:38:18;14.27;;;3.17;;
81135;SDS011;70622;50.886;3.890;2023-07-13T06:40:43;10.07;;;2.90;;
81135;SDS011;70622;50.886;3.890;2023-07-13T06:43:09;8.30;;;3.17;;
81135;SDS011;70622;50.886;3.890;2023-07-13T06:45:36;15.55;;;3.67;;
81135;SDS011;70622;50.886;3.890;2023-07-13T06:48:05;10.40;;;2.95;;
81135;SDS011;70622;50.886;3.890;2023-07-13T06:50:31;11.95;;;3.22;;
81135;SDS011;70622;50.886;3.890;2023-07-13T06:52:58;9.45;;;3.30;;
81135;SDS011;70622;50.886;3.890;2023-07-13T06:55:24;10.18;;;3.38;;
81135;SDS011;70622;50.886;3.890;2023-07-13T06:57:51;8.25;;;3.03;;
81135;SDS011;70622;50.886;3.890;2023-07-13T07:00:17;8.85;;;3.00;;
81135;SDS011;70622;50.886;3.890;2023-07-13T07:02:42;15.73;;;3.67;;
81135;SDS011;70622;50.886;3.890;2023-07-13T07:05:09;11.95;;;2.95;;
81135;SDS011;70622;50.886;3.890;2023-07-13T07:07:34;8.88;;;2.72;;
81135;SDS011;70622;50.886;3.890;2023-07-13T07:10:00;11.88;;;2.78;;
81135;SDS011;70622;50.886;3.890;2023-07-13T07:12:26;8.75;;;2.70;;
81135;SDS011;70622;50.886;3.890;2023-07-13T07:14:53;12.52;;;2.80;;
81135;SDS011;70622;50.886;3.890;2023-07-13T07:17:19;8.75;;;2.88;;
81135;SDS011;70622;50.886;3.890;2023-07-13T07:19:44;8.82;;;3.10;;
81135;SDS011;70622;50.886;3.890;2023-07-13T07:22:10;5.80;;;2.63;;
81135;SDS011;70622;50.886;3.890;2023-07-13T07:24:35;11.40;;;3.40;;
81135;SDS011;70622;50.886;3.890;2023-07-13T07:27:01;11.55;;;3.15;;
81135;SDS011;70622;50.886;3.890;2023-07-13T07:29:27;11.40;;;3.47;;
81135;SDS011;70622;50.886;3.890;2023-07-13T07:31:53;14.65;;;3.70;;
81135;SDS011;70622;50.886;3.890;2023-07-13T07:34:18;8.63;;;3.25;;
81135;SDS011;70622;50.886;3.890;2023-07-13T07:36:44;10.40;;;3.22;;
81135;SDS011;70622;50.886;3.890;2023-07-13T07:39:10;10.75;;;3.40;;
81135;SDS011;70622;50.886;3.890;2023-07-13T07:41:36;9.00;;;3.40;;
81135;SDS011;70622;50.886;3.890;2023-07-13T07:44:02;11.27;;;3.55;;
81135;SDS011;70622;50.886;3.890;2023-07-13T07:46:29;11.18;;;3.40;;
81135;SDS011;70622;50.886;3.890;2023-07-13T07:48:55;10.02;;;3.15;;
81135;SDS011;70622;50.886;3.890;2023-07-13T07:51:21;15.07;;;3.60;;
81135;SDS011;70622;50.886;3.890;2023-07-13T07:53:47;7.60;;;2.92;;
81135;SDS011;70622;50.886;3.890;2023-07-13T07:56:13;8.77;;;3.00;;
81135;SDS011;70622;50.886;3.890;2023-07-13T07:58:41;13.90;;;3.10;;
81135;SDS011;70622;50.886;3.890;2023-07-13T08:01:07;9.55;;;3.25;;
81135;SDS011;70622;50.886;3.890;2023-07-13T08:03:33;9.80;;;3.20;;
81135;SDS011;70622;50.886;3.890;2023-07-13T08:05:59;12.55;;;3.25;;
81135;SDS011;70622;50.886;3.890;2023-07-13T08:08:25;12.32;;;3.30;;
81135;SDS011;70622;50.886;3.890;2023-07-13T08:10:51;6.95;;;3.22;;
81135;SDS011;70622;50.886;3.890;2023-07-13T08:13:17;9.82;;;3.50;;
81135;SDS011;70622;50.886;3.890;2023-07-13T08:15:42;8.10;;;2.88;;
81135;SDS011;70622;50.886;3.890;2023-07-13T08:18:08;10.85;;;3.53;;
81135;SDS011;70622;50.886;3.890;2023-07-13T08:20:36;10.98;;;3.28;;
81135;SDS011;70622;50.886;3.890;2023-07-13T08:23:03;7.63;;;2.97;;
81135;SDS011;70622;50.886;3.890;2023-07-13T08:25:29;9.00;;;3.60;;
81135;SDS011;70622;50.886;3.890;2023-07-13T08:27:54;8.75;;;2.72;;
81135;SDS011;70622;50.886;3.890;2023-07-13T08:30:20;6.82;;;3.10;;
81135;SDS011;70622;50.886;3.890;2023-07-13T08:32:46;10.50;;;3.00;;
81135;SDS011;70622;50.886;3.890;2023-07-13T08:35:12;9.45;;;3.17;;
81135;SDS011;70622;50.886;3.890;2023-07-13T08:37:38;6.15;;;2.90;;
81135;SDS011;70622;50.886;3.890;2023-07-13T08:40:04;8.18;;;2.70;;
81135;SDS011;70622;50.886;3.890;2023-07-13T08:42:50;9.95;;;3.30;;
81135;SDS011;70622;50.886;3.890;2023-07-13T08:48:11;7.60;;;2.60;;
81135;SDS011;70622;50.886;3.890;2023-07-13T08:50:47;7.82;;;2.60;;
81135;SDS011;70622;50.886;3.890;2023-07-13T08:53:16;7.43;;;2.63;;
81135;SDS011;70622;50.886;3.890;2023-07-13T08:55:43;5.68;;;2.30;;
81135;SDS011;70622;50.886;3.890;2023-07-13T08:58:13;7.80;;;2.38;;
81135;SDS011;70622;50.886;3.890;2023-07-13T09:01:04;8.05;;;2.33;;
81135;SDS011;70622;50.886;3.890;2023-07-13T09:03:47;6.43;;;2.30;;
81135;SDS011;70622;50.886;3.890;2023-07-13T09:06:28;7.03;;;2.30;;
81135;SDS011;70622;50.886;3.890;2023-07-13T09:09:10;14.52;;;3.25;;
81135;SDS011;70622;50.886;3.890;2023-07-13T09:14:50;6.93;;;2.65;;
81135;SDS011;70622;50.886;3.890;2023-07-13T09:17:33;8.20;;;2.58;;
81135;SDS011;70622;50.886;3.890;2023-07-13T09:22:41;7.63;;;2.63;;
81135;SDS011;70622;50.886;3.890;2023-07-13T09:25:21;9.38;;;2.65;;
81135;SDS011;70622;50.886;3.890;2023-07-13T09:27:56;7.05;;;2.20;;
81135;SDS011;70622;50.886;3.890;2023-07-13T09:30:52;6.95;;;2.03;;
81135;SDS011;70622;50.886;3.890;2023-07-13T09:33:35;10.00;;;2.60;;
81135;SDS011;70622;50.886;3.890;2023-07-13T09:36:01;5.15;;;2.10;;
81135;SDS011;70622;50.886;3.890;2023-07-13T09:38:42;9.00;;;2.10;;
81135;SDS011;70622;50.886;3.890;2023-07-13T09:44:16;5.07;;;2.33;;
81135;SDS011;70622;50.886;3.890;2023-07-13T09:46:54;5.22;;;2.35;;
81135;SDS011;70622;50.886;3.890;2023-07-13T09:49:28;6.93;;;2.40;;
81135;SDS011;70622;50.886;3.890;2023-07-13T09:52:05;6.18;;;2.30;;
81135;SDS011;70622;50.886;3.890;2023-07-13T09:54:35;5.95;;;2.35;;
81135;SDS011;70622;50.886;3.890;2023-07-13T09:57:03;4.28;;;2.10;;
81135;SDS011;70622;50.886;3.890;2023-07-13T09:59:40;2.88;;;1.80;;
81135;SDS011;70622;50.886;3.890;2023-07-13T10:07:44;8.90;;;1.90;;
81135;SDS011;70622;50.886;3.890;2023-07-13T10:10:14;4.97;;;1.80;;
81135;SDS011;70622;50.886;3.890;2023-07-13T10:12:42;6.18;;;2.00;;
81135;SDS011;70622;50.886;3.890;2023-07-13T10:15:13;5.68;;;2.05;;
81135;SDS011;70622;50.886;3.890;2023-07-13T10:17:41;6.53;;;1.83;;
81135;SDS011;70622;50.886;3.890;2023-07-13T10:20:09;9.20;;;2.30;;
81135;SDS011;70622;50.886;3.890;2023-07-13T10:22:44;4.32;;;1.63;;
81135;SDS011;70622;50.886;3.890;2023-07-13T10:25:18;4.35;;;1.70;;
81135;SDS011;70622;50.886;3.890;2023-07-13T10:27:47;6.68;;;1.88;;
81135;SDS011;70622;50.886;3.890;2023-07-13T10:30:21;5.45;;;2.05;;
81135;SDS011;70622;50.886;3.890;2023-07-13T10:32:53;4.93;;;1.90;;
81135;SDS011;70622;50.886;3.890;2023-07-13T10:35:20;4.35;;;2.10;;
81135;SDS011;70622;50.886;3.890;2023-07-13T10:37:49;4.88;;;1.67;;
81135;SDS011;70622;50.886;3.890;2023-07-13T10:40:31;4.03;;;1.90;;
81135;SDS011;70622;50.886;3.890;2023-07-13T10:43:01;6.35;;;1.98;;
81135;SDS011;70622;50.886;3.890;2023-07-13T10:45:35;3.95;;;1.63;;
81135;SDS011;70622;50.886;3.890;2023-07-13T10:48:02;5.15;;;1.90;;
81135;SDS011;70622;50.886;3.890;2023-07-13T10:50:29;6.97;;;1.75;;
81135;SDS011;70622;50.886;3.890;2023-07-13T10:53:03;4.20;;;1.70;;
81135;SDS011;70622;50.886;3.890;2023-07-13T10:58:36;5.28;;;2.58;;
81135;SDS011;70622;50.886;3.890;2023-07-13T11:01:25;7.43;;;2.08;;
81135;SDS011;70622;50.886;3.890;2023-07-13T11:04:05;3.78;;;1.75;;
81135;SDS011;70622;50.886;3.890;2023-07-13T11:06:39;3.55;;;1.90;;
81135;SDS011;70622;50.886;3.890;2023-07-13T11:12:09;7.18;;;2.72;;
81135;SDS011;70622;50.886;3.890;2023-07-13T11:17:34;6.40;;;2.60;;
81135;SDS011;70622;50.886;3.890;2023-07-13T11:22:50;6.93;;;2.45;;
81135;SDS011;70622;50.886;3.890;2023-07-13T11:25:31;3.58;;;1.80;;
81135;SDS011;70622;50.886;3.890;2023-07-13T11:30:42;5.50;;;2.17;;
81135;SDS011;70622;50.886;3.890;2023-07-13T11:33:20;6.15;;;2.17;;
81135;SDS011;70622;50.886;3.890;2023-07-13T11:36:14;3.17;;;1.70;;
81135;SDS011;70622;50.886;3.890;2023-07-13T11:38:42;3.90;;;1.92;;
81135;SDS011;70622;50.886;3.890;2023-07-13T11:41:22;2.55;;;1.73;;
81135;SDS011;70622;50.886;3.890;2023-07-13T11:43:55;8.75;;;2.47;;
81135;SDS011;70622;50.886;3.890;2023-07-13T11:46:29;4.20;;;2.40;;
81135;SDS011;70622;50.886;3.890;2023-07-13T11:48:55;5.90;;;2.10;;
81135;SDS011;70622;50.886;3.890;2023-07-13T11:51:22;3.92;;;2.33;;
81135;SDS011;70622;50.886;3.890;2023-07-13T11:53:52;4.40;;;2.20;;
81135;SDS011;70622;50.886;3.890;2023-07-13T11:56:19;2.80;;;2.15;;
81135;SDS011;70622;50.886;3.890;2023-07-13T11:58:48;6.07;;;2.60;;
81135;SDS011;70622;50.886;3.890;2023-07-13T12:01:18;3.60;;;1.90;;
81135;SDS011;70622;50.886;3.890;2023-07-13T12:03:47;4.47;;;2.33;;
81135;SDS011;70622;50.886;3.890;2023-07-13T12:06:25;6.70;;;2.63;;
81135;SDS011;70622;50.886;3.890;2023-07-13T12:08:57;4.00;;;2.03;;
81135;SDS011;70622;50.886;3.890;2023-07-13T12:11:24;4.38;;;2.30;;
81135;SDS011;70622;50.886;3.890;2023-07-13T12:13:50;3.63;;;2.40;;
81135;SDS011;70622;50.886;3.890;2023-07-13T12:16:29;7.40;;;2.63;;
81135;SDS011;70622;50.886;3.890;2023-07-13T12:19:00;6.05;;;2.55;;
81135;SDS011;70622;50.886;3.890;2023-07-13T12:21:29;6.70;;;2.05;;
81135;SDS011;70622;50.886;3.890;2023-07-13T12:23:59;3.58;;;1.77;;
81135;SDS011;70622;50.886;3.890;2023-07-13T12:26:27;2.45;;;1.90;;
81135;SDS011;70622;50.886;3.890;2023-07-13T12:28:55;4.28;;;1.90;;
81135;SDS011;70622;50.886;3.890;2023-07-13T12:31:33;6.43;;;2.10;;
81135;SDS011;70622;50.886;3.890;2023-07-13T12:34:02;2.67;;;1.95;;
81135;SDS011;70622;50.886;3.890;2023-07-13T12:36:51;4.85;;;2.00;;
81135;SDS011;70622;50.886;3.890;2023-07-13T12:39:29;6.30;;;2.22;;
81135;SDS011;70622;50.886;3.890;2023-07-13T12:42:25;3.42;;;2.00;;
81135;SDS011;70622;50.886;3.890;2023-07-13T12:44:59;5.10;;;2.53;;
81135;SDS011;70622;50.886;3.890;2023-07-13T12:47:29;2.60;;;1.90;;
81135;SDS011;70622;50.886;3.890;2023-07-13T12:49:59;5.60;;;2.00;;
81135;SDS011;70622;50.886;3.890;2023-07-13T12:52:32;5.05;;;2.15;;
81135;SDS011;70622;50.886;3.890;2023-07-13T12:55:05;3.92;;;1.77;;
81135;SDS011;70622;50.886;3.890;2023-07-13T12:57:44;5.55;;;2.00;;
81135;SDS011;70622;50.886;3.890;2023-07-13T13:00:26;6.50;;;2.13;;
81135;SDS011;70622;50.886;3.890;2023-07-13T13:03:05;5.37;;;2.43;;
81135;SDS011;70622;50.886;3.890;2023-07-13T13:05:37;6.43;;;2.25;;
81135;SDS011;70622;50.886;3.890;2023-07-13T13:08:03;5.03;;;2.28;;
81135;SDS011;70622;50.886;3.890;2023-07-13T13:10:28;4.93;;;1.90;;
81135;SDS011;70622;50.886;3.890;2023-07-13T13:12:54;7.38;;;2.10;;
81135;SDS011;70622;50.886;3.890;2023-07-13T13:15:20;6.10;;;2.40;;
81135;SDS011;70622;50.886;3.890;2023-07-13T13:17:47;6.05;;;2.10;;
81135;SDS011;70622;50.886;3.890;2023-07-13T13:20:17;6.28;;;2.30;;
81135;SDS011;70622;50.886;3.890;2023-07-13T13:22:46;5.55;;;2.20;;
81135;SDS011;70622;50.886;3.890;2023-07-13T13:25:12;4.82;;;2.20;;
81135;SDS011;70622;50.886;3.890;2023-07-13T13:27:43;4.65;;;2.10;;
81135;SDS011;70622;50.886;3.890;2023-07-13T13:30:13;5.95;;;2.03;;
81135;SDS011;70622;50.886;3.890;2023-07-13T13:32:43;3.20;;;2.00;;
81135;SDS011;70622;50.886;3.890;2023-07-13T13:35:14;3.53;;;2.00;;
81135;SDS011;70622;50.886;3.890;2023-07-13T13:37:42;7.55;;;2.10;;
81135;SDS011;70622;50.886;3.890;2023-07-13T13:40:20;3.78;;;2.00;;
81135;SDS011;70622;50.886;3.890;2023-07-13T13:42:48;5.20;;;1.80;;
81135;SDS011;70622;50.886;3.890;2023-07-13T13:45:14;3.63;;;1.90;;
81135;SDS011;70622;50.886;3.890;2023-07-13T13:47:42;6.65;;;1.75;;
81135;SDS011;70622;50.886;3.890;2023-07-13T13:50:16;4.63;;;1.52;;
81135;SDS011;70622;50.886;3.890;2023-07-13T13:52:45;2.65;;;1.50;;
81135;SDS011;70622;50.886;3.890;2023-07-13T13:55:11;2.85;;;1.50;;
81135;SDS011;70622;50.886;3.890;2023-07-13T13:57:38;2.85;;;1.52;;
81135;SDS011;70622;50.886;3.890;2023-07-13T14:00:04;5.50;;;1.58;;
81135;SDS011;70622;50.886;3.890;2023-07-13T14:02:30;3.28;;;1.50;;
81135;SDS011;70622;50.886;3.890;2023-07-13T14:04:58;2.08;;;1.38;;
81135;SDS011;70622;50.886;3.890;2023-07-13T14:07:26;2.60;;;1.50;;
81135;SDS011;70622;50.886;3.890;2023-07-13T14:09:54;3.08;;;1.27;;
81135;SDS011;70622;50.886;3.890;2023-07-13T14:14:49;3.45;;;1.30;;
81135;SDS011;70622;50.886;3.890;2023-07-13T14:17:22;4.03;;;1.13;;
81135;SDS011;70622;50.886;3.890;2023-07-13T14:19:50;4.05;;;1.50;;
81135;SDS011;70622;50.886;3.890;2023-07-13T14:22:21;2.22;;;1.30;;
81135;SDS011;70622;50.886;3.890;2023-07-13T14:24:48;3.13;;;1.35;;
81135;SDS011;70622;50.886;3.890;2023-07-13T14:27:14;2.15;;;1.27;;
81135;SDS011;70622;50.886;3.890;2023-07-13T14:29:40;2.67;;;1.48;;
81135;SDS011;70622;50.886;3.890;2023-07-13T14:32:09;2.50;;;1.20;;
81135;SDS011;70622;50.886;3.890;2023-07-13T14:34:38;3.17;;;1.35;;
81135;SDS011;70622;50.886;3.890;2023-07-13T14:37:04;2.10;;;1.30;;
81135;SDS011;70622;50.886;3.890;2023-07-13T14:39:37;4.22;;;1.70;;
81135;SDS011;70622;50.886;3.890;2023-07-13T14:42:03;4.20;;;1.33;;
81135;SDS011;70622;50.886;3.890;2023-07-13T14:44:29;2.05;;;1.20;;
81135;SDS011;70622;50.886;3.890;2023-07-13T14:46:56;3.15;;;1.67;;
81135;SDS011;70622;50.886;3.890;2023-07-13T14:52:11;2.15;;;1.10;;
81135;SDS011;70622;50.886;3.890;2023-07-13T14:54:39;4.72;;;1.50;;
81135;SDS011;70622;50.886;3.890;2023-07-13T14:57:13;3.17;;;1.20;;
81135;SDS011;70622;50.886;3.890;2023-07-13T14:59:40;3.20;;;1.60;;
81135;SDS011;70622;50.886;3.890;2023-07-13T15:02:23;2.28;;;1.30;;
81135;SDS011;70622;50.886;3.890;2023-07-13T15:04:54;2.67;;;1.45;;
81135;SDS011;70622;50.886;3.890;2023-07-13T15:07:20;1.70;;;1.30;;
81135;SDS011;70622;50.886;3.890;2023-07-13T15:09:46;2.30;;;1.35;;
81135;SDS011;70622;50.886;3.890;2023-07-13T15:12:12;3.10;;;1.38;;
81135;SDS011;70622;50.886;3.890;2023-07-13T15:14:38;2.10;;;1.33;;
81135;SDS011;70622;50.886;3.890;2023-07-13T15:17:04;3.35;;;1.60;;
81135;SDS011;70622;50.886;3.890;2023-07-13T15:19:31;4.43;;;1.30;;
81135;SDS011;70622;50.886;3.890;2023-07-13T15:21:57;2.25;;;1.25;;
81135;SDS011;70622;50.886;3.890;2023-07-13T15:24:23;3.70;;;1.27;;
81135;SDS011;70622;50.886;3.890;2023-07-13T15:26:49;2.47;;;1.20;;
81135;SDS011;70622;50.886;3.890;2023-07-13T15:29:15;2.25;;;1.30;;
81135;SDS011;70622;50.886;3.890;2023-07-13T15:31:42;2.28;;;1.33;;